sensor_id;sensor_type;location;lat;lon;timestamp;pressure;altitude;pressure_sealevel;temperature;humidity
6532;BME280;3299;42.004;24.868;2022-10-16T00:01:30;98922.91;;;11.42;100.00
6532;BME280;3299;42.004;24.868;2022-10-16T00:03:59;98927.84;;;11.33;100.00
6532;BME280;3299;42.004;24.868;2022-10-16T00:06:25;98930.28;;;11.22;100.00
6532;BME280;3299;42.004;24.868;2022-10-16T00:08:51;98928.94;;;11.02;100.00
6532;BME280;3299;42.004;24.868;2022-10-16T00:11:19;98931.97;;;10.95;100.00
6532;BME280;3299;42.004;24.868;2022-10-16T00:13:46;98937.38;;;10.92;100.00
6532;BME280;3299;42.004;24.868;2022-10-16T00:16:12;98935.31;;;10.97;100.00
6532;BME280;3299;42.004;24.868;2022-10-16T00:18:40;98930.69;;;10.88;100.00
6532;BME280;3299;42.004;24.868;2022-10-16T00:21:14;98927.81;;;10.92;100.00
6532;BME280;3299;42.004;24.868;2022-10-16T00:23:40;98932.34;;;10.89;100.00
6532;BME280;3299;42.004;24.868;2022-10-16T00:26:08;98938.47;;;10.88;100.00
6532;BME280;3299;42.004;24.868;2022-10-16T00:28:35;98927.94;;;10.91;100.00
6532;BME280;3299;42.004;24.868;2022-10-16T00:31:09;98922.75;;;10.91;100.00
6532;BME280;3299;42.004;24.868;2022-10-16T00:33:36;98929.13;;;10.99;100.00
6532;BME280;3299;42.004;24.868;2022-10-16T00:36:03;98923.66;;;11.04;100.00
6532;BME280;3299;42.004;24.868;2022-10-16T00:38:29;98920.84;;;11.07;100.00
6532;BME280;3299;42.004;24.868;2022-10-16T00:40:55;98924.84;;;11.12;100.00
6532;BME280;3299;42.004;24.868;2022-10-16T00:43:53;98924.38;;;11.20;100.00
6532;BME280;3299;42.004;24.868;2022-10-16T00:46:25;98930.44;;;11.19;100.00
6532;BME280;3299;42.004;24.868;2022-10-16T00:49:02;98930.59;;;11.30;100.00
6532;BME280;3299;42.004;24.868;2022-10-16T00:51:35;98937.13;;;11.23;100.00
6532;BME280;3299;42.004;24.868;2022-10-16T00:54:04;98934.72;;;11.20;100.00
6532;BME280;3299;42.004;24.868;2022-10-16T00:56:31;98951.38;;;11.16;100.00
6532;BME280;3299;42.004;24.868;2022-10-16T00:58:58;98952.88;;;11.06;100.00
6532;BME280;3299;42.004;24.868;2022-10-16T01:01:24;98945.84;;;10.94;100.00
6532;BME280;3299;42.004;24.868;2022-10-16T01:03:49;98947.88;;;10.89;100.00
6532;BME280;3299;42.004;24.868;2022-10-16T01:09:30;98955.78;;;10.87;100.00
6532;BME280;3299;42.004;24.868;2022-10-16T01:12:26;98957.16;;;10.79;100.00
6532;BME280;3299;42.004;24.868;2022-10-16T01:15:17;98956.50;;;10.75;100.00
6532;BME280;3299;42.004;24.868;2022-10-16T01:20:29;98963.53;;;10.73;100.00
6532;BME280;3299;42.004;24.868;2022-10-16T01:28:23;98969.91;;;10.82;100.00
6532;BME280;3299;42.004;24.868;2022-10-16T01:30:52;98967.31;;;10.82;100.00
6532;BME280;3299;42.004;24.868;2022-10-16T01:33:24;98978.22;;;11.01;100.00
6532;BME280;3299;42.004;24.868;2022-10-16T01:35:58;98982.28;;;11.05;100.00
6532;BME280;3299;42.004;24.868;2022-10-16T01:38:30;98980.03;;;11.13;100.00
6532;BME280;3299;42.004;24.868;2022-10-16T01:41:01;98977.06;;;11.19;100.00
6532;BME280;3299;42.004;24.868;2022-10-16T01:43:33;98978.38;;;11.26;100.00
6532;BME280;3299;42.004;24.868;2022-10-16T01:46:01;98979.09;;;11.28;100.00
6532;BME280;3299;42.004;24.868;2022-10-16T01:48:27;98988.16;;;11.35;100.00
6532;BME280;3299;42.004;24.868;2022-10-16T01:51:01;98983.44;;;11.41;100.00
6532;BME280;3299;42.004;24.868;2022-10-16T01:53:29;98981.66;;;11.42;100.00
6532;BME280;3299;42.004;24.868;2022-10-16T01:55:58;98986.97;;;11.40;100.00
6532;BME280;3299;42.004;24.868;2022-10-16T01:58:25;98982.59;;;11.41;100.00
6532;BME280;3299;42.004;24.868;2022-10-16T02:00:51;98986.34;;;11.49;100.00
6532;BME280;3299;42.004;24.868;2022-10-16T02:03:20;98993.03;;;11.53;100.00
6532;BME280;3299;42.004;24.868;2022-10-16T02:05:50;98987.00;;;11.53;100.00
6532;BME280;3299;42.004;24.868;2022-10-16T02:08:16;98986.63;;;11.59;100.00
6532;BME280;3299;42.004;24.868;2022-10-16T02:10:42;98994.78;;;11.53;100.00
6532;BME280;3299;42.004;24.868;2022-10-16T02:13:12;98991.47;;;11.51;100.00
6532;BME280;3299;42.004;24.868;2022-10-16T02:15:38;99002.88;;;11.34;100.00
6532;BME280;3299;42.004;24.868;2022-10-16T02:18:05;99003.69;;;11.35;100.00
6532;BME280;3299;42.004;24.868;2022-10-16T02:20:53;98998.91;;;11.29;100.00
6532;BME280;3299;42.004;24.868;2022-10-16T02:23:41;99004.94;;;11.29;100.00
6532;BME280;3299;42.004;24.868;2022-10-16T02:26:13;98997.97;;;11.30;100.00
6532;BME280;3299;42.004;24.868;2022-10-16T02:28:46;99006.59;;;11.30;100.00
6532;BME280;3299;42.004;24.868;2022-10-16T02:31:17;98998.34;;;11.24;100.00
6532;BME280;3299;42.004;24.868;2022-10-16T02:33:45;99001.88;;;11.23;100.00
6532;BME280;3299;42.004;24.868;2022-10-16T02:36:11;98998.72;;;11.18;100.00
6532;BME280;3299;42.004;24.868;2022-10-16T02:38:38;98999.66;;;11.17;100.00
6532;BME280;3299;42.004;24.868;2022-10-16T02:41:05;99000.38;;;11.19;100.00
6532;BME280;3299;42.004;24.868;2022-10-16T02:43:31;99004.13;;;11.15;100.00
6532;BME280;3299;42.004;24.868;2022-10-16T02:45:57;98993.00;;;11.13;100.00
6532;BME280;3299;42.004;24.868;2022-10-16T02:48:22;99018.06;;;11.12;100.00
6532;BME280;3299;42.004;24.868;2022-10-16T02:50:48;99018.81;;;11.14;100.00
6532;BME280;3299;42.004;24.868;2022-10-16T02:53:13;99023.16;;;11.14;100.00
6532;BME280;3299;42.004;24.868;2022-10-16T02:55:38;99016.84;;;11.18;100.00
6532;BME280;3299;42.004;24.868;2022-10-16T02:58:04;99018.88;;;11.13;100.00
6532;BME280;3299;42.004;24.868;2022-10-16T03:00:29;99020.38;;;11.17;100.00
6532;BME280;3299;42.004;24.868;2022-10-16T03:02:54;99021.41;;;11.14;100.00
6532;BME280;3299;42.004;24.868;2022-10-16T03:05:20;99026.47;;;11.30;100.00
6532;BME280;3299;42.004;24.868;2022-10-16T03:07:45;99029.44;;;11.24;100.00
6532;BME280;3299;42.004;24.868;2022-10-16T03:10:11;99027.78;;;11.37;100.00
6532;BME280;3299;42.004;24.868;2022-10-16T03:12:36;99024.69;;;11.44;99.82
6532;BME280;3299;42.004;24.868;2022-10-16T03:15:02;99031.44;;;11.47;100.00
6532;BME280;3299;42.004;24.868;2022-10-16T03:17:27;99021.38;;;11.42;100.00
6532;BME280;3299;42.004;24.868;2022-10-16T03:19:53;99034.78;;;11.49;100.00
6532;BME280;3299;42.004;24.868;2022-10-16T03:22:18;99035.69;;;11.48;99.76
6532;BME280;3299;42.004;24.868;2022-10-16T03:24:44;99043.75;;;11.43;100.00
6532;BME280;3299;42.004;24.868;2022-10-16T03:27:09;99037.09;;;11.39;100.00
6532;BME280;3299;42.004;24.868;2022-10-16T03:29:34;99035.25;;;11.41;100.00
6532;BME280;3299;42.004;24.868;2022-10-16T03:32:00;99038.41;;;11.46;98.41
6532;BME280;3299;42.004;24.868;2022-10-16T03:34:26;99037.16;;;11.52;98.33
6532;BME280;3299;42.004;24.868;2022-10-16T03:36:52;99043.84;;;11.56;97.89
6532;BME280;3299;42.004;24.868;2022-10-16T03:39:19;99044.94;;;11.66;97.98
6532;BME280;3299;42.004;24.868;2022-10-16T03:41:44;99048.06;;;11.71;97.87
6532;BME280;3299;42.004;24.868;2022-10-16T03:44:11;99046.50;;;11.68;98.60
6532;BME280;3299;42.004;24.868;2022-10-16T03:46:37;99050.78;;;11.69;97.59
6532;BME280;3299;42.004;24.868;2022-10-16T03:49:02;99052.69;;;11.80;97.38
6532;BME280;3299;42.004;24.868;2022-10-16T03:51:27;99065.41;;;11.70;96.69
6532;BME280;3299;42.004;24.868;2022-10-16T03:53:53;99061.97;;;11.70;97.34
6532;BME280;3299;42.004;24.868;2022-10-16T03:56:18;99053.66;;;11.65;98.10
6532;BME280;3299;42.004;24.868;2022-10-16T03:58:43;99058.41;;;11.58;98.06
6532;BME280;3299;42.004;24.868;2022-10-16T04:01:09;99062.78;;;11.56;97.46
6532;BME280;3299;42.004;24.868;2022-10-16T04:03:34;99053.09;;;11.46;97.50
6532;BME280;3299;42.004;24.868;2022-10-16T04:05:59;99064.03;;;11.37;98.61
6532;BME280;3299;42.004;24.868;2022-10-16T04:08:25;99055.25;;;11.25;99.31
6532;BME280;3299;42.004;24.868;2022-10-16T04:10:50;99060.63;;;11.22;99.25
6532;BME280;3299;42.004;24.868;2022-10-16T04:13:16;99052.94;;;11.21;98.81
6532;BME280;3299;42.004;24.868;2022-10-16T04:15:41;99057.56;;;11.30;99.64
6532;BME280;3299;42.004;24.868;2022-10-16T04:18:07;99053.97;;;11.18;99.77
6532;BME280;3299;42.004;24.868;2022-10-16T04:20:33;99055.72;;;11.04;99.51
6532;BME280;3299;42.004;24.868;2022-10-16T04:22:59;99043.69;;;11.03;99.92
6532;BME280;3299;42.004;24.868;2022-10-16T04:25:24;99042.69;;;11.05;99.87
6532;BME280;3299;42.004;24.868;2022-10-16T04:27:52;99053.69;;;11.09;98.80
6532;BME280;3299;42.004;24.868;2022-10-16T04:30:18;99055.16;;;11.13;99.41
6532;BME280;3299;42.004;24.868;2022-10-16T04:32:48;99056.56;;;11.18;99.38
6532;BME280;3299;42.004;24.868;2022-10-16T04:35:14;99058.94;;;11.21;100.00
6532;BME280;3299;42.004;24.868;2022-10-16T04:37:39;99061.81;;;11.17;99.18
6532;BME280;3299;42.004;24.868;2022-10-16T04:40:05;99073.47;;;11.24;99.79
6532;BME280;3299;42.004;24.868;2022-10-16T04:42:30;99078.47;;;11.27;99.18
6532;BME280;3299;42.004;24.868;2022-10-16T04:44:55;99077.94;;;11.08;100.00
6532;BME280;3299;42.004;24.868;2022-10-16T04:47:21;99091.59;;;11.10;100.00
6532;BME280;3299;42.004;24.868;2022-10-16T04:49:46;99083.94;;;10.94;100.00
6532;BME280;3299;42.004;24.868;2022-10-16T04:52:12;99078.56;;;10.54;100.00
6532;BME280;3299;42.004;24.868;2022-10-16T04:54:37;99080.25;;;10.25;100.00
6532;BME280;3299;42.004;24.868;2022-10-16T04:57:02;99077.88;;;10.36;100.00
6532;BME280;3299;42.004;24.868;2022-10-16T04:59:30;99075.03;;;10.41;100.00
6532;BME280;3299;42.004;24.868;2022-10-16T05:01:55;99074.97;;;10.56;100.00
6532;BME280;3299;42.004;24.868;2022-10-16T05:04:20;99079.97;;;10.59;100.00
6532;BME280;3299;42.004;24.868;2022-10-16T05:06:47;99078.38;;;10.27;100.00
6532;BME280;3299;42.004;24.868;2022-10-16T05:09:13;99067.03;;;10.30;100.00
6532;BME280;3299;42.004;24.868;2022-10-16T05:11:38;99075.97;;;10.54;100.00
6532;BME280;3299;42.004;24.868;2022-10-16T05:14:03;99083.69;;;10.69;100.00
6532;BME280;3299;42.004;24.868;2022-10-16T05:16:29;99084.53;;;10.70;100.00
6532;BME280;3299;42.004;24.868;2022-10-16T05:18:56;99082.31;;;10.78;100.00
6532;BME280;3299;42.004;24.868;2022-10-16T05:21:21;99082.97;;;10.81;100.00
6532;BME280;3299;42.004;24.868;2022-10-16T05:23:46;99087.25;;;10.82;100.00
6532;BME280;3299;42.004;24.868;2022-10-16T05:26:12;99096.38;;;10.88;100.00
6532;BME280;3299;42.004;24.868;2022-10-16T05:28:37;99104.63;;;10.94;100.00
6532;BME280;3299;42.004;24.868;2022-10-16T05:31:09;99111.13;;;10.72;100.00
6532;BME280;3299;42.004;24.868;2022-10-16T05:33:35;99097.09;;;10.76;100.00
6532;BME280;3299;42.004;24.868;2022-10-16T05:36:09;99105.53;;;10.79;100.00
6532;BME280;3299;42.004;24.868;2022-10-16T05:38:36;99111.28;;;10.84;100.00
6532;BME280;3299;42.004;24.868;2022-10-16T05:41:02;99114.88;;;10.96;100.00
6532;BME280;3299;42.004;24.868;2022-10-16T05:43:29;99121.56;;;11.00;100.00
6532;BME280;3299;42.004;24.868;2022-10-16T05:46:01;99117.59;;;10.94;100.00
6532;BME280;3299;42.004;24.868;2022-10-16T05:48:27;99128.69;;;11.10;100.00
6532;BME280;3299;42.004;24.868;2022-10-16T05:50:59;99127.50;;;11.16;100.00
6532;BME280;3299;42.004;24.868;2022-10-16T05:53:27;99137.97;;;11.28;100.00
6532;BME280;3299;42.004;24.868;2022-10-16T05:55:54;99133.31;;;11.33;100.00
6532;BME280;3299;42.004;24.868;2022-10-16T05:58:21;99139.47;;;11.46;100.00
6532;BME280;3299;42.004;24.868;2022-10-16T06:01:01;99140.66;;;11.55;100.00
6532;BME280;3299;42.004;24.868;2022-10-16T06:03:26;99139.09;;;11.52;100.00
6532;BME280;3299;42.004;24.868;2022-10-16T06:05:52;99142.91;;;11.61;100.00
6532;BME280;3299;42.004;24.868;2022-10-16T06:08:19;99137.72;;;11.61;100.00
6532;BME280;3299;42.004;24.868;2022-10-16T06:10:47;99141.31;;;11.72;100.00
6532;BME280;3299;42.004;24.868;2022-10-16T06:13:13;99143.63;;;11.77;100.00
6532;BME280;3299;42.004;24.868;2022-10-16T06:15:40;99147.59;;;11.82;98.86
6532;BME280;3299;42.004;24.868;2022-10-16T06:18:10;99147.53;;;11.84;98.90
6532;BME280;3299;42.004;24.868;2022-10-16T06:20:36;99150.25;;;11.95;97.94
6532;BME280;3299;42.004;24.868;2022-10-16T06:23:02;99144.88;;;11.98;97.46
6532;BME280;3299;42.004;24.868;2022-10-16T06:25:29;99150.25;;;12.09;96.84
6532;BME280;3299;42.004;24.868;2022-10-16T06:27:55;99151.44;;;12.17;95.71
6532;BME280;3299;42.004;24.868;2022-10-16T06:30:20;99152.06;;;12.21;95.89
6532;BME280;3299;42.004;24.868;2022-10-16T06:32:46;99140.59;;;12.11;95.66
6532;BME280;3299;42.004;24.868;2022-10-16T06:35:11;99162.22;;;12.24;95.92
6532;BME280;3299;42.004;24.868;2022-10-16T06:37:36;99170.00;;;12.38;95.01
6532;BME280;3299;42.004;24.868;2022-10-16T06:40:02;99177.56;;;12.41;95.14
6532;BME280;3299;42.004;24.868;2022-10-16T06:42:29;99182.91;;;12.52;94.39
6532;BME280;3299;42.004;24.868;2022-10-16T06:44:55;99188.72;;;12.55;94.92
6532;BME280;3299;42.004;24.868;2022-10-16T06:47:20;99202.72;;;12.67;95.78
6532;BME280;3299;42.004;24.868;2022-10-16T06:49:46;99193.59;;;12.74;94.47
6532;BME280;3299;42.004;24.868;2022-10-16T06:52:11;99197.56;;;12.79;93.53
6532;BME280;3299;42.004;24.868;2022-10-16T06:54:37;99201.75;;;12.94;94.02
6532;BME280;3299;42.004;24.868;2022-10-16T06:57:02;99200.66;;;12.98;93.66
6532;BME280;3299;42.004;24.868;2022-10-16T06:59:27;99205.34;;;13.18;92.54
6532;BME280;3299;42.004;24.868;2022-10-16T07:01:53;99205.28;;;13.32;92.48
6532;BME280;3299;42.004;24.868;2022-10-16T07:04:18;99206.63;;;13.38;91.20
6532;BME280;3299;42.004;24.868;2022-10-16T07:06:44;99211.81;;;13.38;90.03
6532;BME280;3299;42.004;24.868;2022-10-16T07:09:10;99209.53;;;13.21;91.80
6532;BME280;3299;42.004;24.868;2022-10-16T07:11:37;99204.22;;;13.22;91.42
6532;BME280;3299;42.004;24.868;2022-10-16T07:14:04;99214.75;;;13.33;91.88
6532;BME280;3299;42.004;24.868;2022-10-16T07:16:31;99218.19;;;13.46;92.23
6532;BME280;3299;42.004;24.868;2022-10-16T07:18:58;99213.63;;;13.62;90.85
6532;BME280;3299;42.004;24.868;2022-10-16T07:21:26;99218.31;;;13.70;89.14
6532;BME280;3299;42.004;24.868;2022-10-16T07:23:55;99222.44;;;13.85;87.82
6532;BME280;3299;42.004;24.868;2022-10-16T07:26:22;99219.22;;;13.94;86.72
6532;BME280;3299;42.004;24.868;2022-10-16T07:28:47;99225.47;;;13.79;86.47
6532;BME280;3299;42.004;24.868;2022-10-16T07:31:14;99224.50;;;13.92;86.40
6532;BME280;3299;42.004;24.868;2022-10-16T07:33:41;99227.13;;;13.92;84.75
6532;BME280;3299;42.004;24.868;2022-10-16T07:36:09;99225.16;;;13.71;86.79
6532;BME280;3299;42.004;24.868;2022-10-16T07:38:35;99225.56;;;13.90;85.38
6532;BME280;3299;42.004;24.868;2022-10-16T07:41:02;99219.31;;;14.05;85.29
6532;BME280;3299;42.004;24.868;2022-10-16T07:43:29;99215.53;;;14.09;83.96
6532;BME280;3299;42.004;24.868;2022-10-16T07:45:55;99215.94;;;14.15;83.84
6532;BME280;3299;42.004;24.868;2022-10-16T07:48:21;99227.16;;;14.16;84.03
6532;BME280;3299;42.004;24.868;2022-10-16T07:50:47;99224.47;;;14.30;83.49
6532;BME280;3299;42.004;24.868;2022-10-16T07:53:13;99224.56;;;14.41;82.73
6532;BME280;3299;42.004;24.868;2022-10-16T07:55:38;99226.28;;;14.53;81.46
6532;BME280;3299;42.004;24.868;2022-10-16T07:58:05;99226.84;;;14.69;80.65
6532;BME280;3299;42.004;24.868;2022-10-16T08:00:31;99220.78;;;14.68;80.08
6532;BME280;3299;42.004;24.868;2022-10-16T08:02:57;99228.41;;;14.71;79.89
6532;BME280;3299;42.004;24.868;2022-10-16T08:05:30;99226.22;;;14.89;79.88
6532;BME280;3299;42.004;24.868;2022-10-16T08:07:56;99238.59;;;14.98;79.19
6532;BME280;3299;42.004;24.868;2022-10-16T08:10:24;99235.28;;;15.07;79.35
6532;BME280;3299;42.004;24.868;2022-10-16T08:12:50;99236.03;;;15.20;77.85
6532;BME280;3299;42.004;24.868;2022-10-16T08:15:16;99227.22;;;15.33;77.30
6532;BME280;3299;42.004;24.868;2022-10-16T08:17:42;99234.03;;;15.47;76.51
6532;BME280;3299;42.004;24.868;2022-10-16T08:20:08;99235.13;;;15.55;75.52
6532;BME280;3299;42.004;24.868;2022-10-16T08:22:33;99231.56;;;15.67;75.54
6532;BME280;3299;42.004;24.868;2022-10-16T08:24:59;99232.19;;;15.82;74.53
6532;BME280;3299;42.004;24.868;2022-10-16T08:27:24;99223.66;;;15.91;73.15
6532;BME280;3299;42.004;24.868;2022-10-16T08:29:49;99227.34;;;15.88;72.48
6532;BME280;3299;42.004;24.868;2022-10-16T08:32:15;99221.63;;;15.94;72.64
6532;BME280;3299;42.004;24.868;2022-10-16T08:34:41;99226.38;;;16.00;72.03
6532;BME280;3299;42.004;24.868;2022-10-16T08:37:06;99222.72;;;16.03;70.84
6532;BME280;3299;42.004;24.868;2022-10-16T08:39:33;99217.72;;;16.11;71.18
6532;BME280;3299;42.004;24.868;2022-10-16T08:42:15;99218.88;;;16.18;70.99
6532;BME280;3299;42.004;24.868;2022-10-16T08:47:22;99228.97;;;16.44;68.73
6532;BME280;3299;42.004;24.868;2022-10-16T08:49:57;99215.31;;;16.41;68.72
6532;BME280;3299;42.004;24.868;2022-10-16T08:52:25;99230.50;;;16.58;66.49
6532;BME280;3299;42.004;24.868;2022-10-16T08:54:55;99229.44;;;16.49;63.77
6532;BME280;3299;42.004;24.868;2022-10-16T08:57:22;99232.63;;;16.31;62.02
6532;BME280;3299;42.004;24.868;2022-10-16T08:59:49;99228.13;;;16.33;62.38
6532;BME280;3299;42.004;24.868;2022-10-16T09:02:26;99224.59;;;16.45;63.21
6532;BME280;3299;42.004;24.868;2022-10-16T09:07:31;99238.09;;;16.61;61.61
6532;BME280;3299;42.004;24.868;2022-10-16T09:17:49;99239.31;;;16.88;61.92
6532;BME280;3299;42.004;24.868;2022-10-16T09:21:00;99241.50;;;16.72;59.38
6532;BME280;3299;42.004;24.868;2022-10-16T09:23:32;99238.31;;;16.69;58.65
6532;BME280;3299;42.004;24.868;2022-10-16T09:25:59;99233.06;;;16.80;59.29
6532;BME280;3299;42.004;24.868;2022-10-16T09:28:25;99237.13;;;16.73;58.79
6532;BME280;3299;42.004;24.868;2022-10-16T09:30:51;99235.16;;;16.86;59.06
6532;BME280;3299;42.004;24.868;2022-10-16T09:33:19;99235.72;;;17.00;58.37
6532;BME280;3299;42.004;24.868;2022-10-16T09:35:51;99233.06;;;17.11;57.11
6532;BME280;3299;42.004;24.868;2022-10-16T09:38:24;99228.41;;;17.15;55.07
6532;BME280;3299;42.004;24.868;2022-10-16T09:40:50;99238.94;;;17.24;54.92
6532;BME280;3299;42.004;24.868;2022-10-16T09:46:05;99231.19;;;17.23;54.38
6532;BME280;3299;42.004;24.868;2022-10-16T09:48:37;99221.38;;;17.36;55.78
6532;BME280;3299;42.004;24.868;2022-10-16T09:51:06;99221.50;;;17.45;53.13
6532;BME280;3299;42.004;24.868;2022-10-16T09:53:39;99223.31;;;17.54;53.81
6532;BME280;3299;42.004;24.868;2022-10-16T09:56:05;99221.16;;;17.39;53.09
6532;BME280;3299;42.004;24.868;2022-10-16T09:58:31;99214.56;;;17.44;54.44
6532;BME280;3299;42.004;24.868;2022-10-16T10:00:58;99216.09;;;17.47;54.47
6532;BME280;3299;42.004;24.868;2022-10-16T10:03:35;99209.44;;;17.54;53.32
6532;BME280;3299;42.004;24.868;2022-10-16T10:06:06;99206.66;;;17.55;54.88
6532;BME280;3299;42.004;24.868;2022-10-16T10:08:39;99203.31;;;17.74;54.53
6532;BME280;3299;42.004;24.868;2022-10-16T10:11:04;99195.78;;;17.80;54.08
6532;BME280;3299;42.004;24.868;2022-10-16T10:13:30;99198.88;;;17.95;54.25
6532;BME280;3299;42.004;24.868;2022-10-16T10:15:56;99200.28;;;18.08;53.06
6532;BME280;3299;42.004;24.868;2022-10-16T10:18:22;99196.31;;;18.14;51.76
6532;BME280;3299;42.004;24.868;2022-10-16T10:21:02;99199.09;;;18.22;52.75
6532;BME280;3299;42.004;24.868;2022-10-16T10:23:29;99201.91;;;18.30;52.87
6532;BME280;3299;42.004;24.868;2022-10-16T10:36:30;99200.22;;;18.97;49.98
6532;BME280;3299;42.004;24.868;2022-10-16T10:39:02;99192.63;;;19.13;50.36
6532;BME280;3299;42.004;24.868;2022-10-16T10:44:20;99194.69;;;19.28;47.95
6532;BME280;3299;42.004;24.868;2022-10-16T10:46:54;99188.63;;;19.37;48.06
6532;BME280;3299;42.004;24.868;2022-10-16T10:52:20;99190.75;;;19.61;49.28
6532;BME280;3299;42.004;24.868;2022-10-16T10:54:58;99173.63;;;19.66;48.57
6532;BME280;3299;42.004;24.868;2022-10-16T11:00:21;99177.03;;;19.76;46.20
6532;BME280;3299;42.004;24.868;2022-10-16T11:05:46;99178.44;;;19.71;45.93
6532;BME280;3299;42.004;24.868;2022-10-16T11:08:43;99179.59;;;19.86;45.64
6532;BME280;3299;42.004;24.868;2022-10-16T11:14:00;99174.03;;;19.98;44.26
6532;BME280;3299;42.004;24.868;2022-10-16T11:16:33;99172.47;;;20.15;44.01
6532;BME280;3299;42.004;24.868;2022-10-16T11:21:42;99168.97;;;20.24;43.18
6532;BME280;3299;42.004;24.868;2022-10-16T11:24:43;99166.78;;;20.19;43.35
6532;BME280;3299;42.004;24.868;2022-10-16T11:27:15;99166.81;;;20.37;43.49
6532;BME280;3299;42.004;24.868;2022-10-16T11:29:55;99173.56;;;20.39;42.69
6532;BME280;3299;42.004;24.868;2022-10-16T11:32:30;99165.22;;;20.44;42.03
6532;BME280;3299;42.004;24.868;2022-10-16T11:35:27;99172.38;;;20.34;41.86
6532;BME280;3299;42.004;24.868;2022-10-16T11:37:58;99168.66;;;20.27;43.01
6532;BME280;3299;42.004;24.868;2022-10-16T11:40:28;99165.28;;;19.80;43.62
6532;BME280;3299;42.004;24.868;2022-10-16T11:43:06;99166.66;;;19.84;43.66
6532;BME280;3299;42.004;24.868;2022-10-16T11:45:40;99167.41;;;19.94;43.97
6532;BME280;3299;42.004;24.868;2022-10-16T11:56:32;99159.38;;;19.69;45.04
6532;BME280;3299;42.004;24.868;2022-10-16T11:59:08;99156.53;;;19.53;46.28
6532;BME280;3299;42.004;24.868;2022-10-16T12:01:46;99157.34;;;19.53;46.39
6532;BME280;3299;42.004;24.868;2022-10-16T12:06:53;99164.72;;;19.77;45.03
6532;BME280;3299;42.004;24.868;2022-10-16T12:09:26;99165.81;;;19.84;44.93
6532;BME280;3299;42.004;24.868;2022-10-16T12:11:53;99161.38;;;19.84;44.04
6532;BME280;3299;42.004;24.868;2022-10-16T12:14:39;99158.00;;;19.92;43.85
6532;BME280;3299;42.004;24.868;2022-10-16T12:19:57;99149.94;;;19.76;44.89
6532;BME280;3299;42.004;24.868;2022-10-16T12:22:23;99150.94;;;19.75;45.93
6532;BME280;3299;42.004;24.868;2022-10-16T12:24:51;99158.44;;;19.60;46.37
6532;BME280;3299;42.004;24.868;2022-10-16T12:27:28;99161.06;;;19.60;46.67
6532;BME280;3299;42.004;24.868;2022-10-16T12:29:57;99163.25;;;19.65;47.08
6532;BME280;3299;42.004;24.868;2022-10-16T12:32:30;99167.25;;;19.59;46.88
6532;BME280;3299;42.004;24.868;2022-10-16T12:34:57;99174.91;;;19.53;46.76
6532;BME280;3299;42.004;24.868;2022-10-16T12:37:25;99170.34;;;19.45;46.74
6532;BME280;3299;42.004;24.868;2022-10-16T12:39:53;99165.81;;;19.38;47.63
6532;BME280;3299;42.004;24.868;2022-10-16T12:44:51;99167.78;;;19.17;47.61
6532;BME280;3299;42.004;24.868;2022-10-16T12:49:54;99164.31;;;18.50;47.46
6532;BME280;3299;42.004;24.868;2022-10-16T12:52:38;99168.56;;;18.51;46.43
6532;BME280;3299;42.004;24.868;2022-10-16T12:55:06;99167.97;;;18.28;47.62
6532;BME280;3299;42.004;24.868;2022-10-16T13:00:41;99160.19;;;17.68;50.47
6532;BME280;3299;42.004;24.868;2022-10-16T13:06:32;99159.25;;;17.49;51.08
6532;BME280;3299;42.004;24.868;2022-10-16T13:17:35;99161.81;;;16.98;53.70
6532;BME280;3299;42.004;24.868;2022-10-16T13:25:28;99166.22;;;16.66;54.57
6532;BME280;3299;42.004;24.868;2022-10-16T13:28:03;99175.19;;;16.42;56.25
6532;BME280;3299;42.004;24.868;2022-10-16T13:30:31;99171.63;;;16.32;56.20
6532;BME280;3299;42.004;24.868;2022-10-16T13:33:06;99162.72;;;16.34;56.25
6532;BME280;3299;42.004;24.868;2022-10-16T13:35:34;99163.19;;;16.39;56.48
6532;BME280;3299;42.004;24.868;2022-10-16T13:38:21;99166.44;;;16.21;56.59
6532;BME280;3299;42.004;24.868;2022-10-16T13:41:00;99172.13;;;16.26;57.83
6532;BME280;3299;42.004;24.868;2022-10-16T13:43:34;99173.31;;;16.44;57.20
6532;BME280;3299;42.004;24.868;2022-10-16T13:46:05;99182.75;;;16.56;56.97
6532;BME280;3299;42.004;24.868;2022-10-16T13:48:32;99177.63;;;16.65;57.19
6532;BME280;3299;42.004;24.868;2022-10-16T13:53:36;99171.88;;;16.29;58.03
6532;BME280;3299;42.004;24.868;2022-10-16T13:56:09;99169.75;;;16.01;58.86
6532;BME280;3299;42.004;24.868;2022-10-16T13:58:35;99179.75;;;15.85;59.24
6532;BME280;3299;42.004;24.868;2022-10-16T14:01:06;99176.78;;;15.89;60.09
6532;BME280;3299;42.004;24.868;2022-10-16T14:03:41;99171.56;;;15.67;61.29
6532;BME280;3299;42.004;24.868;2022-10-16T14:06:12;99164.56;;;15.57;61.95
6532;BME280;3299;42.004;24.868;2022-10-16T14:08:43;99165.97;;;15.72;61.49
6532;BME280;3299;42.004;24.868;2022-10-16T14:11:10;99175.94;;;15.67;61.47
6532;BME280;3299;42.004;24.868;2022-10-16T14:13:43;99179.50;;;15.55;61.87
6532;BME280;3299;42.004;24.868;2022-10-16T14:16:11;99174.25;;;15.44;63.15
6532;BME280;3299;42.004;24.868;2022-10-16T14:18:46;99163.38;;;15.39;63.42
6532;BME280;3299;42.004;24.868;2022-10-16T14:21:15;99174.88;;;15.47;63.33
6532;BME280;3299;42.004;24.868;2022-10-16T14:23:42;99168.72;;;15.59;62.09
6532;BME280;3299;42.004;24.868;2022-10-16T14:28:37;99174.50;;;15.96;59.66
6532;BME280;3299;42.004;24.868;2022-10-16T14:33:47;99169.19;;;15.97;59.99
6532;BME280;3299;42.004;24.868;2022-10-16T14:36:14;99174.97;;;16.01;59.39
6532;BME280;3299;42.004;24.868;2022-10-16T14:38:49;99180.69;;;15.84;59.98
6532;BME280;3299;42.004;24.868;2022-10-16T14:41:20;99175.72;;;15.70;60.51
6532;BME280;3299;42.004;24.868;2022-10-16T14:43:50;99181.19;;;15.56;61.82
6532;BME280;3299;42.004;24.868;2022-10-16T14:46:20;99182.22;;;15.42;63.09
6532;BME280;3299;42.004;24.868;2022-10-16T14:48:47;99188.72;;;15.37;63.06
6532;BME280;3299;42.004;24.868;2022-10-16T14:51:16;99176.06;;;15.20;63.60
6532;BME280;3299;42.004;24.868;2022-10-16T14:53:41;99175.69;;;15.02;64.87
6532;BME280;3299;42.004;24.868;2022-10-16T14:56:31;99178.38;;;14.90;64.61
6532;BME280;3299;42.004;24.868;2022-10-16T14:59:00;99186.47;;;14.98;64.66